sensor_id;sensor_type;location;lat;lon;timestamp;pressure;altitude;pressure_sealevel;temperature;humidity
57094;BME280;42970;50.996;3.706;2023-05-11T00:01:06;47173.91;;;-146.65;76.43
57094;BME280;42970;50.996;3.706;2023-05-11T00:03:32;47173.91;;;-146.65;76.20
57094;BME280;42970;50.996;3.706;2023-05-11T00:05:58;47173.91;;;-146.65;76.24
57094;BME280;42970;50.996;3.706;2023-05-11T00:08:24;47169.91;;;-146.65;76.00
57094;BME280;42970;50.996;3.706;2023-05-11T00:10:49;47173.91;;;-146.65;75.85
57094;BME280;42970;50.996;3.706;2023-05-11T00:13:15;47173.91;;;-146.65;75.85
57094;BME280;42970;50.996;3.706;2023-05-11T00:15:40;47175.91;;;-146.65;75.86
57094;BME280;42970;50.996;3.706;2023-05-11T00:18:06;47173.91;;;-146.65;76.50
57094;BME280;42970;50.996;3.706;2023-05-11T00:20:31;47171.91;;;-146.65;76.22
57094;BME280;42970;50.996;3.706;2023-05-11T00:22:57;47175.91;;;-146.65;76.37
57094;BME280;42970;50.996;3.706;2023-05-11T00:25:22;47173.91;;;-146.65;76.38
57094;BME280;42970;50.996;3.706;2023-05-11T00:27:47;47173.91;;;-146.65;76.76
57094;BME280;42970;50.996;3.706;2023-05-11T00:30:13;47175.91;;;-146.65;76.61
57094;BME280;42970;50.996;3.706;2023-05-11T00:32:39;47173.91;;;-146.65;76.63
57094;BME280;42970;50.996;3.706;2023-05-11T00:35:05;47175.91;;;-146.65;76.55
57094;BME280;42970;50.996;3.706;2023-05-11T00:37:30;47173.91;;;-146.65;77.02
57094;BME280;42970;50.996;3.706;2023-05-11T00:39:55;47175.91;;;-146.65;76.40
57094;BME280;42970;50.996;3.706;2023-05-11T00:42:21;47173.91;;;-146.65;75.98
57094;BME280;42970;50.996;3.706;2023-05-11T00:44:46;47173.91;;;-146.65;76.37
57094;BME280;42970;50.996;3.706;2023-05-11T00:47:11;47175.91;;;-146.65;76.21
57094;BME280;42970;50.996;3.706;2023-05-11T00:49:37;47173.91;;;-146.65;75.53
57094;BME280;42970;50.996;3.706;2023-05-11T00:52:03;47169.91;;;-146.65;75.55
57094;BME280;42970;50.996;3.706;2023-05-11T00:54:28;47175.91;;;-146.65;75.93
57094;BME280;42970;50.996;3.706;2023-05-11T00:56:54;47173.91;;;-146.65;76.20
57094;BME280;42970;50.996;3.706;2023-05-11T00:59:19;47175.91;;;-146.65;76.60
57094;BME280;42970;50.996;3.706;2023-05-11T01:01:45;47175.91;;;-146.65;76.26
57094;BME280;42970;50.996;3.706;2023-05-11T01:04:10;47175.91;;;-146.65;75.98
57094;BME280;42970;50.996;3.706;2023-05-11T01:06:47;47175.91;;;-146.65;75.86
57094;BME280;42970;50.996;3.706;2023-05-11T01:11:44;47173.91;;;-146.65;76.35
57094;BME280;42970;50.996;3.706;2023-05-11T01:14:11;47177.91;;;-146.65;76.07
57094;BME280;42970;50.996;3.706;2023-05-11T01:16:42;47175.91;;;-146.65;76.22
57094;BME280;42970;50.996;3.706;2023-05-11T01:19:17;47169.91;;;-146.65;76.19
57094;BME280;42970;50.996;3.706;2023-05-11T01:21:43;47173.91;;;-146.65;76.37
57094;BME280;42970;50.996;3.706;2023-05-11T01:31:45;47173.91;;;-146.65;77.32
57094;BME280;42970;50.996;3.706;2023-05-11T01:34:18;47173.91;;;-146.65;77.20
57094;BME280;42970;50.996;3.706;2023-05-11T01:36:50;47175.91;;;-146.65;77.62
57094;BME280;42970;50.996;3.706;2023-05-11T01:39:16;47177.91;;;-146.65;77.54
57094;BME280;42970;50.996;3.706;2023-05-11T01:41:44;47173.91;;;-146.65;77.75
57094;BME280;42970;50.996;3.706;2023-05-11T01:44:14;47171.91;;;-146.65;78.15
57094;BME280;42970;50.996;3.706;2023-05-11T01:46:42;47173.91;;;-146.65;77.97
57094;BME280;42970;50.996;3.706;2023-05-11T01:49:08;47171.91;;;-146.65;78.18
57094;BME280;42970;50.996;3.706;2023-05-11T01:51:35;47175.91;;;-146.65;77.70
57094;BME280;42970;50.996;3.706;2023-05-11T01:54:02;47175.91;;;-146.65;77.71
57094;BME280;42970;50.996;3.706;2023-05-11T01:56:30;47173.91;;;-146.65;78.07
57094;BME280;42970;50.996;3.706;2023-05-11T01:58:57;47171.91;;;-146.65;78.05
57094;BME280;42970;50.996;3.706;2023-05-11T02:01:23;47175.91;;;-146.65;77.80
57094;BME280;42970;50.996;3.706;2023-05-11T02:03:50;47175.91;;;-146.65;77.80
57094;BME280;42970;50.996;3.706;2023-05-11T02:06:16;47175.91;;;-146.65;78.01
57094;BME280;42970;50.996;3.706;2023-05-11T02:08:42;47173.91;;;-146.65;78.08
57094;BME280;42970;50.996;3.706;2023-05-11T02:11:09;47175.91;;;-146.65;77.90
57094;BME280;42970;50.996;3.706;2023-05-11T02:13:35;47175.91;;;-146.65;77.78
57094;BME280;42970;50.996;3.706;2023-05-11T02:16:02;47173.91;;;-146.65;77.87
57094;BME280;42970;50.996;3.706;2023-05-11T02:18:29;47175.91;;;-146.65;77.92
57094;BME280;42970;50.996;3.706;2023-05-11T02:20:56;47171.91;;;-146.65;77.66
57094;BME280;42970;50.996;3.706;2023-05-11T02:23:22;47175.91;;;-146.65;78.02
57094;BME280;42970;50.996;3.706;2023-05-11T02:25:49;47171.91;;;-146.65;77.68
57094;BME280;42970;50.996;3.706;2023-05-11T02:28:16;47173.91;;;-146.65;78.11
57094;BME280;42970;50.996;3.706;2023-05-11T02:30:46;47175.91;;;-146.65;78.05
57094;BME280;42970;50.996;3.706;2023-05-11T02:33:30;47173.91;;;-146.65;78.02
57094;BME280;42970;50.996;3.706;2023-05-11T02:35:57;47173.91;;;-146.65;78.15
57094;BME280;42970;50.996;3.706;2023-05-11T02:38:25;47173.91;;;-146.65;78.73
57094;BME280;42970;50.996;3.706;2023-05-11T02:40:54;47175.91;;;-146.65;79.08
57094;BME280;42970;50.996;3.706;2023-05-11T02:43:23;47171.91;;;-146.65;78.79
57094;BME280;42970;50.996;3.706;2023-05-11T02:45:50;47169.91;;;-146.65;78.61
57094;BME280;42970;50.996;3.706;2023-05-11T02:48:21;47175.91;;;-146.65;77.99
57094;BME280;42970;50.996;3.706;2023-05-11T02:50:47;47173.91;;;-146.65;77.90
57094;BME280;42970;50.996;3.706;2023-05-11T02:53:15;47175.91;;;-146.65;77.44
57094;BME280;42970;50.996;3.706;2023-05-11T02:55:42;47175.91;;;-146.65;77.82
57094;BME280;42970;50.996;3.706;2023-05-11T02:58:07;47177.91;;;-146.65;77.72
57094;BME280;42970;50.996;3.706;2023-05-11T03:00:33;47179.91;;;-146.65;77.71
57094;BME280;42970;50.996;3.706;2023-05-11T03:02:58;47173.91;;;-146.65;77.65
57094;BME280;42970;50.996;3.706;2023-05-11T03:05:24;47173.91;;;-146.65;77.63
57094;BME280;42970;50.996;3.706;2023-05-11T03:07:50;47173.91;;;-146.65;77.68
57094;BME280;42970;50.996;3.706;2023-05-11T03:10:15;47173.91;;;-146.65;77.33
57094;BME280;42970;50.996;3.706;2023-05-11T03:12:41;47175.91;;;-146.65;77.15
57094;BME280;42970;50.996;3.706;2023-05-11T03:15:06;47175.91;;;-146.65;77.19
57094;BME280;42970;50.996;3.706;2023-05-11T03:17:32;47171.91;;;-146.65;76.89
57094;BME280;42970;50.996;3.706;2023-05-11T03:19:58;47173.91;;;-146.65;77.13
57094;BME280;42970;50.996;3.706;2023-05-11T03:22:27;47173.91;;;-146.65;76.83
57094;BME280;42970;50.996;3.706;2023-05-11T03:24:53;47175.91;;;-146.65;76.67
57094;BME280;42970;50.996;3.706;2023-05-11T03:27:19;47177.91;;;-146.65;76.78
57094;BME280;42970;50.996;3.706;2023-05-11T03:29:44;47173.91;;;-146.65;76.42
57094;BME280;42970;50.996;3.706;2023-05-11T03:32:12;47173.91;;;-146.65;76.87
57094;BME280;42970;50.996;3.706;2023-05-11T03:34:37;47175.91;;;-146.65;77.32
57094;BME280;42970;50.996;3.706;2023-05-11T03:37:03;47179.91;;;-146.65;78.03
57094;BME280;42970;50.996;3.706;2023-05-11T03:39:29;47173.91;;;-146.65;77.71
57094;BME280;42970;50.996;3.706;2023-05-11T03:41:56;47171.91;;;-146.65;77.97
57094;BME280;42970;50.996;3.706;2023-05-11T03:44:23;47175.91;;;-146.65;77.89
57094;BME280;42970;50.996;3.706;2023-05-11T03:46:49;47173.91;;;-146.65;77.60
57094;BME280;42970;50.996;3.706;2023-05-11T03:49:17;47171.91;;;-146.65;78.09
57094;BME280;42970;50.996;3.706;2023-05-11T03:51:42;47171.91;;;-146.65;78.18
57094;BME280;42970;50.996;3.706;2023-05-11T03:54:08;47177.91;;;-146.65;77.57
57094;BME280;42970;50.996;3.706;2023-05-11T03:56:37;47175.91;;;-146.65;78.09
57094;BME280;42970;50.996;3.706;2023-05-11T03:59:03;47175.91;;;-146.65;77.67
57094;BME280;42970;50.996;3.706;2023-05-11T04:01:28;47171.91;;;-146.65;77.63
57094;BME280;42970;50.996;3.706;2023-05-11T04:03:54;47171.91;;;-146.65;77.42
57094;BME280;42970;50.996;3.706;2023-05-11T04:06:20;47179.91;;;-146.65;76.96
57094;BME280;42970;50.996;3.706;2023-05-11T04:08:45;47173.91;;;-146.65;77.68
57094;BME280;42970;50.996;3.706;2023-05-11T04:11:12;47173.91;;;-146.65;77.76
57094;BME280;42970;50.996;3.706;2023-05-11T04:13:37;47175.91;;;-146.65;77.97
57094;BME280;42970;50.996;3.706;2023-05-11T04:16:02;47171.91;;;-146.65;77.52
57094;BME280;42970;50.996;3.706;2023-05-11T04:18:28;47171.91;;;-146.65;77.84
57094;BME280;42970;50.996;3.706;2023-05-11T04:20:53;47177.91;;;-146.65;77.36
57094;BME280;42970;50.996;3.706;2023-05-11T04:23:19;47175.91;;;-146.65;77.36
57094;BME280;42970;50.996;3.706;2023-05-11T04:25:44;47175.91;;;-146.65;77.09
57094;BME280;42970;50.996;3.706;2023-05-11T04:28:10;47169.91;;;-146.65;77.48
57094;BME280;42970;50.996;3.706;2023-05-11T04:30:35;47175.91;;;-146.65;77.43
57094;BME280;42970;50.996;3.706;2023-05-11T04:33:00;47175.91;;;-146.65;78.02
57094;BME280;42970;50.996;3.706;2023-05-11T04:35:26;47177.91;;;-146.65;77.34
57094;BME280;42970;50.996;3.706;2023-05-11T04:37:51;47175.91;;;-146.65;77.63
57094;BME280;42970;50.996;3.706;2023-05-11T04:40:16;47175.91;;;-146.65;77.96
57094;BME280;42970;50.996;3.706;2023-05-11T04:42:42;47173.91;;;-146.65;78.18
57094;BME280;42970;50.996;3.706;2023-05-11T04:45:07;47173.91;;;-146.65;78.46
57094;BME280;42970;50.996;3.706;2023-05-11T04:47:33;47175.91;;;-146.65;78.38
57094;BME280;42970;50.996;3.706;2023-05-11T04:49:58;47175.91;;;-146.65;78.09
57094;BME280;42970;50.996;3.706;2023-05-11T04:52:23;47173.91;;;-146.65;78.21
57094;BME280;42970;50.996;3.706;2023-05-11T04:54:49;47175.91;;;-146.65;78.47
57094;BME280;42970;50.996;3.706;2023-05-11T04:57:14;47175.91;;;-146.65;78.61
57094;BME280;42970;50.996;3.706;2023-05-11T04:59:39;47175.91;;;-146.65;78.79
57094;BME280;42970;50.996;3.706;2023-05-11T05:02:05;47173.91;;;-146.65;78.23
57094;BME280;42970;50.996;3.706;2023-05-11T05:04:30;47171.91;;;-146.65;77.98
57094;BME280;42970;50.996;3.706;2023-05-11T05:06:55;47173.91;;;-146.65;77.70
57094;BME280;42970;50.996;3.706;2023-05-11T05:09:21;47171.91;;;-146.65;78.05
57094;BME280;42970;50.996;3.706;2023-05-11T05:11:46;47181.91;;;-146.65;77.97
57094;BME280;42970;50.996;3.706;2023-05-11T05:14:11;47173.91;;;-146.65;77.23
57094;BME280;42970;50.996;3.706;2023-05-11T05:16:37;47173.91;;;-146.65;76.39
57094;BME280;42970;50.996;3.706;2023-05-11T05:19:02;47173.91;;;-146.65;76.04
57094;BME280;42970;50.996;3.706;2023-05-11T05:21:27;47171.91;;;-146.65;75.69
57094;BME280;42970;50.996;3.706;2023-05-11T05:23:53;47179.91;;;-146.65;75.93
57094;BME280;42970;50.996;3.706;2023-05-11T05:26:18;47173.91;;;-146.65;75.79
57094;BME280;42970;50.996;3.706;2023-05-11T05:28:43;47173.91;;;-146.65;75.23
57094;BME280;42970;50.996;3.706;2023-05-11T05:31:09;47173.91;;;-146.65;76.05
57094;BME280;42970;50.996;3.706;2023-05-11T05:33:34;47175.91;;;-146.65;75.48
57094;BME280;42970;50.996;3.706;2023-05-11T05:35:59;47171.91;;;-146.65;75.29
57094;BME280;42970;50.996;3.706;2023-05-11T05:38:24;47173.91;;;-146.65;74.88
57094;BME280;42970;50.996;3.706;2023-05-11T05:40:50;47175.91;;;-146.65;74.84
57094;BME280;42970;50.996;3.706;2023-05-11T05:43:15;47173.91;;;-146.65;74.92
57094;BME280;42970;50.996;3.706;2023-05-11T05:45:40;47177.91;;;-146.65;74.77
57094;BME280;42970;50.996;3.706;2023-05-11T05:48:06;47173.91;;;-146.65;74.45
57094;BME280;42970;50.996;3.706;2023-05-11T05:50:33;47173.91;;;-146.65;73.77
57094;BME280;42970;50.996;3.706;2023-05-11T05:52:59;47173.91;;;-146.65;73.38
57094;BME280;42970;50.996;3.706;2023-05-11T05:55:24;47175.91;;;-146.65;73.21
57094;BME280;42970;50.996;3.706;2023-05-11T05:57:49;47175.91;;;-146.65;72.49
57094;BME280;42970;50.996;3.706;2023-05-11T06:00:15;47179.91;;;-146.65;72.49
57094;BME280;42970;50.996;3.706;2023-05-11T06:02:41;47173.91;;;-146.65;71.82
57094;BME280;42970;50.996;3.706;2023-05-11T06:05:06;47175.91;;;-146.65;72.62
57094;BME280;42970;50.996;3.706;2023-05-11T06:07:32;47177.91;;;-146.65;72.26
57094;BME280;42970;50.996;3.706;2023-05-11T06:09:57;47177.91;;;-146.65;72.77
57094;BME280;42970;50.996;3.706;2023-05-11T06:12:23;47173.91;;;-146.65;72.02
57094;BME280;42970;50.996;3.706;2023-05-11T06:14:48;47177.91;;;-146.65;71.02
57094;BME280;42970;50.996;3.706;2023-05-11T06:17:16;47175.91;;;-146.65;70.96
57094;BME280;42970;50.996;3.706;2023-05-11T06:19:41;47175.91;;;-146.65;69.76
57094;BME280;42970;50.996;3.706;2023-05-11T06:22:07;47177.91;;;-146.65;69.69
57094;BME280;42970;50.996;3.706;2023-05-11T06:24:32;47175.91;;;-146.65;69.85
57094;BME280;42970;50.996;3.706;2023-05-11T06:26:58;47173.91;;;-146.65;69.51
57094;BME280;42970;50.996;3.706;2023-05-11T06:29:23;47175.91;;;-146.65;70.19
57094;BME280;42970;50.996;3.706;2023-05-11T06:31:48;47175.91;;;-146.65;69.22
57094;BME280;42970;50.996;3.706;2023-05-11T06:34:17;47171.91;;;-146.65;69.75
57094;BME280;42970;50.996;3.706;2023-05-11T06:36:43;47177.91;;;-146.65;70.18
57094;BME280;42970;50.996;3.706;2023-05-11T06:39:08;47173.91;;;-146.65;70.58
57094;BME280;42970;50.996;3.706;2023-05-11T06:41:33;47169.91;;;-146.65;71.07
57094;BME280;42970;50.996;3.706;2023-05-11T06:43:59;47173.91;;;-146.65;71.03
57094;BME280;42970;50.996;3.706;2023-05-11T06:46:24;47175.91;;;-146.65;72.47
57094;BME280;42970;50.996;3.706;2023-05-11T06:48:50;47177.91;;;-146.65;72.46
57094;BME280;42970;50.996;3.706;2023-05-11T06:51:15;47175.91;;;-146.65;72.53
57094;BME280;42970;50.996;3.706;2023-05-11T06:53:41;47175.91;;;-146.65;71.51
57094;BME280;42970;50.996;3.706;2023-05-11T06:56:06;47173.91;;;-146.65;71.92
57094;BME280;42970;50.996;3.706;2023-05-11T06:58:32;47173.91;;;-146.65;71.28
57094;BME280;42970;50.996;3.706;2023-05-11T07:00:57;47177.91;;;-146.65;72.13
57094;BME280;42970;50.996;3.706;2023-05-11T07:03:24;47169.91;;;-146.65;71.90
57094;BME280;42970;50.996;3.706;2023-05-11T07:05:49;47175.91;;;-146.65;71.11
57094;BME280;42970;50.996;3.706;2023-05-11T07:08:14;47177.91;;;-146.65;71.03
57094;BME280;42970;50.996;3.706;2023-05-11T07:10:39;47177.91;;;-146.65;71.19
57094;BME280;42970;50.996;3.706;2023-05-11T07:13:06;47177.91;;;-146.65;70.29
57094;BME280;42970;50.996;3.706;2023-05-11T07:15:31;47175.91;;;-146.65;69.30
57094;BME280;42970;50.996;3.706;2023-05-11T07:17:56;47175.91;;;-146.65;68.32
57094;BME280;42970;50.996;3.706;2023-05-11T07:20:22;47175.91;;;-146.65;67.74
57094;BME280;42970;50.996;3.706;2023-05-11T07:22:47;47173.91;;;-146.65;69.21
57094;BME280;42970;50.996;3.706;2023-05-11T07:25:13;47173.91;;;-146.65;68.92
57094;BME280;42970;50.996;3.706;2023-05-11T07:27:38;47173.91;;;-146.65;69.48
57094;BME280;42970;50.996;3.706;2023-05-11T07:30:03;47177.91;;;-146.65;70.23
57094;BME280;42970;50.996;3.706;2023-05-11T07:32:29;47175.91;;;-146.65;69.54
57094;BME280;42970;50.996;3.706;2023-05-11T07:34:54;47177.91;;;-146.65;69.62
57094;BME280;42970;50.996;3.706;2023-05-11T07:37:19;47173.91;;;-146.65;68.30
57094;BME280;42970;50.996;3.706;2023-05-11T07:39:45;47177.91;;;-146.65;68.11
57094;BME280;42970;50.996;3.706;2023-05-11T07:42:10;47177.91;;;-146.65;69.24
57094;BME280;42970;50.996;3.706;2023-05-11T07:44:36;47173.91;;;-146.65;69.00
57094;BME280;42970;50.996;3.706;2023-05-11T07:47:01;47175.91;;;-146.65;68.83
57094;BME280;42970;50.996;3.706;2023-05-11T07:49:27;47171.91;;;-146.65;68.85
57094;BME280;42970;50.996;3.706;2023-05-11T07:51:53;47169.91;;;-146.65;69.53
57094;BME280;42970;50.996;3.706;2023-05-11T07:54:18;47173.91;;;-146.65;70.18
57094;BME280;42970;50.996;3.706;2023-05-11T07:56:44;47175.91;;;-146.65;68.16
57094;BME280;42970;50.996;3.706;2023-05-11T07:59:09;47175.91;;;-146.65;68.18
57094;BME280;42970;50.996;3.706;2023-05-11T08:01:34;47177.91;;;-146.65;67.25
57094;BME280;42970;50.996;3.706;2023-05-11T08:04:00;47173.91;;;-146.65;67.02
57094;BME280;42970;50.996;3.706;2023-05-11T08:06:26;47175.91;;;-146.65;66.29
57094;BME280;42970;50.996;3.706;2023-05-11T08:08:51;47177.91;;;-146.65;64.80
57094;BME280;42970;50.996;3.706;2023-05-11T08:11:17;47177.91;;;-146.65;65.33
57094;BME280;42970;50.996;3.706;2023-05-11T08:13:42;47177.91;;;-146.65;64.62
57094;BME280;42970;50.996;3.706;2023-05-11T08:16:07;47173.91;;;-146.65;63.21
57094;BME280;42970;50.996;3.706;2023-05-11T08:18:33;47175.91;;;-146.65;65.00
57094;BME280;42970;50.996;3.706;2023-05-11T08:20:58;47175.91;;;-146.65;67.07
57094;BME280;42970;50.996;3.706;2023-05-11T08:23:24;47171.91;;;-146.65;67.63
57094;BME280;42970;50.996;3.706;2023-05-11T08:25:53;47173.91;;;-146.65;66.46
57094;BME280;42970;50.996;3.706;2023-05-11T08:28:19;47175.91;;;-146.65;65.99
57094;BME280;42970;50.996;3.706;2023-05-11T08:30:45;47173.91;;;-146.65;65.81
57094;BME280;42970;50.996;3.706;2023-05-11T08:33:10;47179.91;;;-146.65;65.74
57094;BME280;42970;50.996;3.706;2023-05-11T08:35:37;47175.91;;;-146.65;66.22
57094;BME280;42970;50.996;3.706;2023-05-11T08:38:02;47177.91;;;-146.65;64.57
57094;BME280;42970;50.996;3.706;2023-05-11T08:40:28;47175.91;;;-146.65;66.16
57094;BME280;42970;50.996;3.706;2023-05-11T08:42:55;47173.91;;;-146.65;66.44
57094;BME280;42970;50.996;3.706;2023-05-11T08:45:21;47177.91;;;-146.65;66.63
57094;BME280;42970;50.996;3.706;2023-05-11T08:47:47;47173.91;;;-146.65;65.91
57094;BME280;42970;50.996;3.706;2023-05-11T08:50:12;47175.91;;;-146.65;64.52
57094;BME280;42970;50.996;3.706;2023-05-11T08:52:38;47173.91;;;-146.65;64.16
57094;BME280;42970;50.996;3.706;2023-05-11T08:55:05;47175.91;;;-146.65;63.57
57094;BME280;42970;50.996;3.706;2023-05-11T08:57:30;47173.91;;;-146.65;63.05
57094;BME280;42970;50.996;3.706;2023-05-11T08:59:57;47175.91;;;-146.65;61.34
57094;BME280;42970;50.996;3.706;2023-05-11T09:02:24;47173.91;;;-146.65;62.53
57094;BME280;42970;50.996;3.706;2023-05-11T09:04:50;47179.91;;;-146.65;62.50
57094;BME280;42970;50.996;3.706;2023-05-11T09:07:15;47177.91;;;-146.65;60.10
57094;BME280;42970;50.996;3.706;2023-05-11T09:09:41;47177.91;;;-146.65;59.84
57094;BME280;42970;50.996;3.706;2023-05-11T09:12:07;47179.91;;;-146.65;58.05
57094;BME280;42970;50.996;3.706;2023-05-11T09:14:33;47173.91;;;-146.65;56.49
57094;BME280;42970;50.996;3.706;2023-05-11T09:16:58;47177.91;;;-146.65;58.25
57094;BME280;42970;50.996;3.706;2023-05-11T09:19:23;47175.91;;;-146.65;55.92
57094;BME280;42970;50.996;3.706;2023-05-11T09:21:51;47175.91;;;-146.65;57.04
57094;BME280;42970;50.996;3.706;2023-05-11T09:24:16;47177.91;;;-146.65;59.97
57094;BME280;42970;50.996;3.706;2023-05-11T09:26:43;47177.91;;;-146.65;60.15
57094;BME280;42970;50.996;3.706;2023-05-11T09:29:09;47175.91;;;-146.65;61.03
57094;BME280;42970;50.996;3.706;2023-05-11T09:34:08;47177.91;;;-146.65;62.04
57094;BME280;42970;50.996;3.706;2023-05-11T09:36:34;47173.91;;;-146.65;61.68
57094;BME280;42970;50.996;3.706;2023-05-11T09:39:02;47173.91;;;-146.65;62.19
57094;BME280;42970;50.996;3.706;2023-05-11T09:41:29;47173.91;;;-146.65;61.56
57094;BME280;42970;50.996;3.706;2023-05-11T09:44:02;47177.91;;;-146.65;61.73
57094;BME280;42970;50.996;3.706;2023-05-11T09:46:28;47173.91;;;-146.65;61.19
57094;BME280;42970;50.996;3.706;2023-05-11T09:48:59;47175.91;;;-146.65;60.30
57094;BME280;42970;50.996;3.706;2023-05-11T09:51:28;47177.91;;;-146.65;61.21
57094;BME280;42970;50.996;3.706;2023-05-11T09:53:56;47173.91;;;-146.65;60.69
57094;BME280;42970;50.996;3.706;2023-05-11T09:56:21;47173.91;;;-146.65;63.58
57094;BME280;42970;50.996;3.706;2023-05-11T09:58:48;47175.91;;;-146.65;62.63
57094;BME280;42970;50.996;3.706;2023-05-11T10:01:14;47175.91;;;-146.65;63.03
57094;BME280;42970;50.996;3.706;2023-05-11T10:03:47;47175.91;;;-146.65;63.33
57094;BME280;42970;50.996;3.706;2023-05-11T10:06:12;47175.91;;;-146.65;62.89
57094;BME280;42970;50.996;3.706;2023-05-11T10:08:38;47177.91;;;-146.65;61.39
57094;BME280;42970;50.996;3.706;2023-05-11T10:11:03;47175.91;;;-146.65;61.11
57094;BME280;42970;50.996;3.706;2023-05-11T10:13:30;47173.91;;;-146.65;60.56
57094;BME280;42970;50.996;3.706;2023-05-11T10:15:56;47177.91;;;-146.65;60.35
57094;BME280;42970;50.996;3.706;2023-05-11T10:18:22;47177.91;;;-146.65;59.12
57094;BME280;42970;50.996;3.706;2023-05-11T10:20:48;47177.91;;;-146.65;58.02
57094;BME280;42970;50.996;3.706;2023-05-11T10:23:15;47175.91;;;-146.65;55.55
57094;BME280;42970;50.996;3.706;2023-05-11T10:25:41;47171.91;;;-146.65;55.18
57094;BME280;42970;50.996;3.706;2023-05-11T10:28:07;47175.91;;;-146.65;57.27
57094;BME280;42970;50.996;3.706;2023-05-11T10:30:33;47177.91;;;-146.65;57.72
57094;BME280;42970;50.996;3.706;2023-05-11T10:32:59;47173.91;;;-146.65;56.18
57094;BME280;42970;50.996;3.706;2023-05-11T10:35:25;47177.91;;;-146.65;55.03
57094;BME280;42970;50.996;3.706;2023-05-11T10:37:50;47175.91;;;-146.65;52.93
57094;BME280;42970;50.996;3.706;2023-05-11T10:40:15;47181.91;;;-146.65;53.82
57094;BME280;42970;50.996;3.706;2023-05-11T10:42:52;47179.91;;;-146.65;52.83
57094;BME280;42970;50.996;3.706;2023-05-11T10:50:56;47175.91;;;-146.65;52.44
57094;BME280;42970;50.996;3.706;2023-05-11T10:58:46;47177.91;;;-146.65;53.01
57094;BME280;42970;50.996;3.706;2023-05-11T11:04:00;47179.91;;;-146.65;54.71
57094;BME280;42970;50.996;3.706;2023-05-11T11:06:27;47177.91;;;-146.65;55.95
57094;BME280;42970;50.996;3.706;2023-05-11T11:08:57;47177.91;;;-146.65;59.19
57094;BME280;42970;50.996;3.706;2023-05-11T11:13:58;47171.91;;;-146.65;60.73
57094;BME280;42970;50.996;3.706;2023-05-11T11:16:26;47173.91;;;-146.65;63.37
57094;BME280;42970;50.996;3.706;2023-05-11T11:18:52;47173.91;;;-146.65;65.95
57094;BME280;42970;50.996;3.706;2023-05-11T11:21:40;47175.91;;;-146.65;67.57
57094;BME280;42970;50.996;3.706;2023-05-11T11:24:06;47173.91;;;-146.65;67.87
57094;BME280;42970;50.996;3.706;2023-05-11T11:26:50;47175.91;;;-146.65;67.07
57094;BME280;42970;50.996;3.706;2023-05-11T11:29:16;47173.91;;;-146.65;66.66
57094;BME280;42970;50.996;3.706;2023-05-11T11:31:41;47175.91;;;-146.65;67.56
57094;BME280;42970;50.996;3.706;2023-05-11T11:39:18;47177.91;;;-146.65;69.04
57094;BME280;42970;50.996;3.706;2023-05-11T11:41:44;47173.91;;;-146.65;71.70
57094;BME280;42970;50.996;3.706;2023-05-11T11:44:19;47175.91;;;-146.65;74.43
57094;BME280;42970;50.996;3.706;2023-05-11T11:46:45;47175.91;;;-146.65;75.45
57094;BME280;42970;50.996;3.706;2023-05-11T11:49:11;47175.91;;;-146.65;75.82
57094;BME280;42970;50.996;3.706;2023-05-11T11:51:37;47177.91;;;-146.65;76.41
57094;BME280;42970;50.996;3.706;2023-05-11T11:54:04;47175.91;;;-146.65;76.85
57094;BME280;42970;50.996;3.706;2023-05-11T11:58:55;47177.91;;;-146.65;76.52
57094;BME280;42970;50.996;3.706;2023-05-11T12:01:23;47171.91;;;-146.65;76.85
57094;BME280;42970;50.996;3.706;2023-05-11T12:03:57;47179.91;;;-146.65;76.94
57094;BME280;42970;50.996;3.706;2023-05-11T12:06:37;47173.91;;;-146.65;74.78
57094;BME280;42970;50.996;3.706;2023-05-11T12:09:03;47177.91;;;-146.65;73.50
57094;BME280;42970;50.996;3.706;2023-05-11T12:11:31;47179.91;;;-146.65;71.46
57094;BME280;42970;50.996;3.706;2023-05-11T12:13:58;47175.91;;;-146.65;69.75
57094;BME280;42970;50.996;3.706;2023-05-11T12:16:23;47179.91;;;-146.65;70.57
57094;BME280;42970;50.996;3.706;2023-05-11T12:18:56;47173.91;;;-146.65;70.73
57094;BME280;42970;50.996;3.706;2023-05-11T12:21:22;47175.91;;;-146.65;70.45
57094;BME280;42970;50.996;3.706;2023-05-11T12:23:51;47175.91;;;-146.65;69.92
57094;BME280;42970;50.996;3.706;2023-05-11T12:26:18;47177.91;;;-146.65;70.01
57094;BME280;42970;50.996;3.706;2023-05-11T12:28:43;47173.91;;;-146.65;71.19
57094;BME280;42970;50.996;3.706;2023-05-11T12:31:13;47179.91;;;-146.65;71.40
57094;BME280;42970;50.996;3.706;2023-05-11T12:33:45;47175.91;;;-146.65;70.62
57094;BME280;42970;50.996;3.706;2023-05-11T12:36:12;47177.91;;;-146.65;71.04
57094;BME280;42970;50.996;3.706;2023-05-11T12:38:42;47173.91;;;-146.65;69.33
57094;BME280;42970;50.996;3.706;2023-05-11T12:41:07;47175.91;;;-146.65;69.41
57094;BME280;42970;50.996;3.706;2023-05-11T12:43:32;47173.91;;;-146.65;69.72
57094;BME280;42970;50.996;3.706;2023-05-11T12:45:58;47177.91;;;-146.65;68.45
57094;BME280;42970;50.996;3.706;2023-05-11T12:48:23;47173.91;;;-146.65;66.85
57094;BME280;42970;50.996;3.706;2023-05-11T12:50:48;47177.91;;;-146.65;65.06
57094;BME280;42970;50.996;3.706;2023-05-11T12:53:14;47173.91;;;-146.65;64.37
57094;BME280;42970;50.996;3.706;2023-05-11T12:55:40;47173.91;;;-146.65;62.41
57094;BME280;42970;50.996;3.706;2023-05-11T12:58:09;47173.91;;;-146.65;56.72
57094;BME280;42970;50.996;3.706;2023-05-11T13:00:35;47171.91;;;-146.65;54.29
57094;BME280;42970;50.996;3.706;2023-05-11T13:03:00;47173.91;;;-146.65;54.05
57094;BME280;42970;50.996;3.706;2023-05-11T13:05:26;47173.91;;;-146.65;52.40
57094;BME280;42970;50.996;3.706;2023-05-11T13:07:57;47173.91;;;-146.65;52.28
57094;BME280;42970;50.996;3.706;2023-05-11T13:10:23;47175.91;;;-146.65;50.53
57094;BME280;42970;50.996;3.706;2023-05-11T13:12:51;47181.91;;;-146.65;46.72